PROFILE

 METAR AND TAF INFORMATION
ADDS - METARS form results

(0031 UTC 13 November 2018)
http://aviationweather.gov/metar/data/
 
LEPA 130000Z 33004KT CAVOK 13/13 Q1020 NOSIG
TAF LEPA 122300Z 1300/1324 04006KT 9999 SCT015 TX23/1312Z TN12/1306Z TEMPO 1300/1307 VRB02KT 2000 BR BKN010 PROB30 TEMPO 1300/1306 1000 BCFG BKN003 

 AIRPORT MAP

 RUNWAY INFORMATION
Runway 06L Runway length 10728 ft Runway width 148 ft
Runway elevation 15 ft Runway displaced threshold 0 ft Runway heading 59
Runway 24R Runway length 10728 ft Runway width 148 ft
Runway elevation 8 ft Runway displaced threshold 230 ft Runway heading 239
Runway 06R Runway length 9842 ft Runway width 148 ft
Runway elevation 24 ft Runway displaced threshold 1345 ft Runway heading 59
Runway 24L Runway length 9842 ft Runway width 148 ft
Runway elevation 8 ft Runway displaced threshold 0 ft Runway heading 239

 AIRPORT FREQUENCIES
Type APP Name APP Frequency 118.95 MHZ
Type ATIS Name ATIS Frequency 119.25 MHZ
Type CLD Name CLNC DEL Frequency 121.6 MHZ
Type GND Name GND Frequency 121.7 MHZ
Type OPS Name OPS Frequency 130.25 MHZ
Type TWR Name TWR Frequency 118.3 MHZ

 AIRPORT NEAR NAVIGATION AIDS